createdAt,value
2018-01-17T00:01:40.836Z,3.40
2018-01-17T00:04:09.076Z,7.17
2018-01-17T00:06:36.551Z,7.13
2018-01-17T00:09:04.016Z,6.83
2018-01-17T00:11:32.260Z,6.23
2018-01-17T00:13:59.731Z,7.10
2018-01-17T00:16:27.204Z,8.33
2018-01-17T00:18:55.444Z,6.70
2018-01-17T00:21:22.914Z,10.87
2018-01-17T00:23:50.379Z,8.87
2018-01-17T00:26:17.872Z,7.10
2018-01-17T00:28:46.107Z,6.70
2018-01-17T00:31:14.348Z,11.03
2018-01-17T00:33:41.821Z,12.43
2018-01-17T00:36:10.172Z,11.53
2018-01-17T00:38:37.723Z,9.03
2018-01-17T00:41:05.249Z,7.47
2018-01-17T00:43:33.479Z,8.40
2018-01-17T00:46:01.007Z,11.30
2018-01-17T00:48:29.234Z,15.27
2018-01-17T00:50:56.714Z,9.00
2018-01-17T00:53:24.183Z,9.87
2018-01-17T00:55:51.668Z,10.70
2018-01-17T00:58:19.890Z,7.70
2018-01-17T01:00:47.370Z,8.90
2018-01-17T01:03:14.839Z,8.10
2018-01-17T01:05:42.326Z,8.10
2018-01-17T01:08:10.568Z,12.27
2018-01-17T01:10:38.103Z,15.23
2018-01-17T01:13:05.532Z,11.37
2018-01-17T01:15:33.002Z,13.33
2018-01-17T01:18:00.487Z,16.70
2018-01-17T01:20:27.971Z,12.87
2018-01-17T01:22:56.212Z,11.07
2018-01-17T01:25:27.706Z,11.27
2018-01-17T01:27:55.947Z,12.30
2018-01-17T01:30:23.446Z,10.67
2018-01-17T01:32:51.688Z,10.60
2018-01-17T01:35:19.165Z,14.90
2018-01-17T01:37:46.632Z,10.37
2018-01-17T01:40:14.878Z,10.17
2018-01-17T01:42:42.338Z,9.90
2018-01-17T01:45:09.819Z,8.87
2018-01-17T01:47:38.054Z,6.80
2018-01-17T01:50:05.522Z,5.43
2018-01-17T01:52:32.987Z,5.30
2018-01-17T01:55:01.340Z,2.87
2018-01-17T01:57:28.803Z,6.80
2018-01-17T01:59:57.039Z,3.20
2018-01-17T02:02:25.293Z,7.67
2018-01-17T02:04:52.780Z,3.87
2018-01-17T02:07:20.248Z,1.77
2018-01-17T02:09:47.733Z,5.50
2018-01-17T02:12:15.200Z,4.93
2018-01-17T02:14:42.693Z,4.17
2018-01-17T02:17:10.933Z,2.67
2018-01-17T02:19:38.397Z,6.83
2018-01-17T02:22:05.888Z,2.10
2018-01-17T02:24:34.118Z,3.07
2018-01-17T02:27:01.590Z,3.40
2018-01-17T02:29:29.059Z,1.80
2018-01-17T02:31:56.564Z,2.67
2018-01-17T02:34:24.028Z,4.60
2018-01-17T02:36:51.504Z,3.60
2018-01-17T02:39:18.971Z,2.93
2018-01-17T02:41:46.435Z,1.73
2018-01-17T02:44:13.914Z,3.57
2018-01-17T02:46:41.386Z,1.83
2018-01-17T02:49:09.624Z,1.37
2018-01-17T02:51:37.090Z,1.27
2018-01-17T02:54:04.611Z,1.20
2018-01-17T02:56:32.100Z,3.13
2018-01-17T02:58:59.555Z,7.07
2018-01-17T03:01:27.031Z,8.70
2018-01-17T03:03:54.506Z,8.70
2018-01-17T03:06:21.986Z,9.90
2018-01-17T03:08:49.442Z,13.70
2018-01-17T03:11:16.918Z,19.40
2018-01-17T03:13:44.396Z,15.13
2018-01-17T03:16:11.874Z,14.93
2018-01-17T03:18:39.345Z,16.60
2018-01-17T03:21:06.826Z,12.57
2018-01-17T03:23:35.062Z,18.63
2018-01-17T03:26:02.542Z,15.27
2018-01-17T03:28:30.006Z,11.13
2018-01-17T03:30:58.267Z,19.07
2018-01-17T03:33:25.734Z,13.40
2018-01-17T03:35:53.213Z,15.03
2018-01-17T03:38:20.682Z,16.10
2018-01-17T03:40:48.158Z,22.90
2018-01-17T03:43:15.628Z,12.37
2018-01-17T03:45:43.103Z,13.50
2018-01-17T03:48:10.578Z,14.70
2018-01-17T03:50:38.065Z,16.70
2018-01-17T03:53:06.300Z,13.13
2018-01-17T03:55:33.786Z,17.53
2018-01-17T03:58:01.263Z,13.00
2018-01-17T04:00:29.499Z,19.63
2018-01-17T04:02:56.963Z,13.03
2018-01-17T04:05:24.432Z,16.23
2018-01-17T04:07:52.681Z,10.33
2018-01-17T04:10:20.143Z,16.37
2018-01-17T04:12:47.626Z,6.37
2018-01-17T04:15:15.853Z,13.40
2018-01-17T04:17:43.324Z,8.43
2018-01-17T04:20:10.799Z,12.60
2018-01-17T04:22:38.274Z,9.33
2018-01-17T04:25:05.744Z,10.27
2018-01-17T04:27:33.978Z,11.13
2018-01-17T04:30:01.454Z,10.20
2018-01-17T04:32:28.928Z,7.63
2018-01-17T04:34:57.162Z,8.13
2018-01-17T04:37:24.635Z,7.67
2018-01-17T04:39:52.103Z,7.00
2018-01-17T04:42:21.362Z,7.23
2018-01-17T04:44:48.838Z,7.80
2018-01-17T04:47:16.310Z,6.77
2018-01-17T04:49:43.771Z,7.10
2018-01-17T04:52:11.244Z,6.23
2018-01-17T04:54:38.726Z,3.70
2018-01-17T04:57:06.193Z,4.90
2018-01-17T04:59:33.660Z,2.43
2018-01-17T05:02:01.133Z,2.10
2018-01-17T05:04:28.602Z,3.13
2018-01-17T05:06:56.072Z,2.93
2018-01-17T05:09:23.537Z,3.70
2018-01-17T05:11:51.006Z,1.93
2018-01-17T05:14:18.487Z,4.47
2018-01-17T05:16:46.724Z,4.83
2018-01-17T05:19:14.968Z,3.27
2018-01-17T05:21:42.442Z,3.77
2018-01-17T05:24:09.905Z,1.73
2018-01-17T05:26:37.383Z,3.67
2018-01-17T05:29:04.847Z,2.60
2018-01-17T05:31:32.323Z,2.73
2018-01-17T05:34:00.550Z,4.00
2018-01-17T05:36:28.031Z,1.53
2018-01-17T05:38:55.511Z,2.07
2018-01-17T05:41:23.750Z,3.40
2018-01-17T05:43:51.206Z,1.97
2018-01-17T05:46:19.491Z,1.77
2018-01-17T05:48:46.954Z,3.73
2018-01-17T05:51:14.434Z,1.33
2018-01-17T05:53:42.669Z,1.37
2018-01-17T05:56:10.135Z,1.60
2018-01-17T05:58:38.375Z,2.23
2018-01-17T06:01:05.873Z,1.80
2018-01-17T06:03:33.411Z,0.90
2018-01-17T06:06:00.831Z,0.80
2018-01-17T06:08:29.110Z,2.23
2018-01-17T06:10:57.339Z,3.03
2018-01-17T06:13:24.814Z,1.30
2018-01-17T06:15:52.284Z,2.80
2018-01-17T06:18:19.754Z,5.03
2018-01-17T06:20:47.983Z,2.30
2018-01-17T06:23:15.463Z,3.53
2018-01-17T06:25:42.920Z,1.60
2018-01-17T06:28:11.742Z,3.83
2018-01-17T06:30:41.718Z,3.43
2018-01-17T06:36:10.730Z,2.83
2018-01-17T06:38:43.867Z,5.13
2018-01-17T06:41:14.378Z,3.33
2018-01-17T06:43:46.936Z,9.30
2018-01-17T06:46:23.701Z,3.53
2018-01-17T06:49:10.320Z,2.27
2018-01-17T06:51:45.188Z,4.57
2018-01-17T06:54:12.724Z,7.63
2018-01-17T06:56:46.730Z,4.03
2018-01-17T06:59:24.648Z,7.00
2018-01-17T07:01:52.202Z,4.80
2018-01-17T07:04:19.783Z,6.63
2018-01-17T07:06:52.947Z,3.83
2018-01-17T07:09:26.343Z,4.70
2018-01-17T07:11:54.649Z,7.40
2018-01-17T07:14:22.180Z,4.90
2018-01-17T07:16:54.619Z,4.87
2018-01-17T07:19:23.654Z,5.20
2018-01-17T07:21:51.947Z,12.33
2018-01-17T07:24:19.889Z,16.37
2018-01-17T07:26:48.811Z,10.90
2018-01-17T07:29:17.585Z,9.10
2018-01-17T07:31:50.730Z,9.87
2018-01-17T07:37:18.059Z,5.80
2018-01-17T07:39:45.593Z,3.40
2018-01-17T07:42:13.146Z,5.03
2018-01-17T07:44:40.663Z,4.10
2018-01-17T07:47:08.192Z,5.40
2018-01-17T07:49:35.720Z,5.27
2018-01-17T07:52:03.267Z,6.37
2018-01-17T07:54:30.790Z,9.20
2018-01-17T07:56:58.415Z,7.93
2018-01-17T08:01:59.281Z,7.13
2018-01-17T08:04:26.838Z,6.20
2018-01-17T08:06:56.350Z,6.23
2018-01-17T08:09:26.374Z,5.50
2018-01-17T08:11:53.903Z,4.57
2018-01-17T08:14:22.259Z,12.20
2018-01-17T08:16:53.902Z,6.93
2018-01-17T08:19:22.268Z,6.53
2018-01-17T08:21:50.739Z,11.40
2018-01-17T08:24:19.193Z,6.27
2018-01-17T08:26:47.481Z,6.27
2018-01-17T08:29:17.441Z,5.63
2018-01-17T08:31:44.953Z,4.40
2018-01-17T08:34:16.532Z,4.20
2018-01-17T08:36:44.054Z,6.73
2018-01-17T08:39:11.647Z,4.80
2018-01-17T08:44:22.109Z,4.40
2018-01-17T08:46:50.620Z,8.77
2018-01-17T08:49:18.228Z,13.73
2018-01-17T08:51:46.519Z,4.20
2018-01-17T08:54:14.829Z,5.07
2018-01-17T08:56:43.008Z,6.27
2018-01-17T08:59:11.351Z,3.93
2018-01-17T09:01:39.660Z,3.80
2018-01-17T09:04:07.252Z,3.60
2018-01-17T09:06:34.767Z,5.33
2018-01-17T09:09:02.601Z,12.70
2018-01-17T09:11:30.150Z,5.90
2018-01-17T09:13:57.774Z,4.40
2018-01-17T09:16:25.364Z,8.10
2018-01-17T09:18:52.930Z,5.40
2018-01-17T09:21:20.479Z,8.13
2018-01-17T09:23:48.085Z,16.93
2018-01-17T09:26:15.611Z,6.67
2018-01-17T09:28:43.208Z,7.93
2018-01-17T09:31:11.496Z,5.20
2018-01-17T09:33:39.037Z,4.90
2018-01-17T09:36:07.330Z,3.83
2018-01-17T09:38:35.689Z,4.87
2018-01-17T09:41:03.218Z,6.03
2018-01-17T09:43:30.917Z,15.50
2018-01-17T09:45:58.465Z,9.10
2018-01-17T09:48:25.997Z,7.13
2018-01-17T09:50:54.231Z,8.00
2018-01-17T09:53:22.487Z,9.23
2018-01-17T09:55:49.967Z,7.53
2018-01-17T09:58:18.213Z,9.33
2018-01-17T10:00:45.694Z,11.60
2018-01-17T10:03:13.951Z,8.97
2018-01-17T10:05:41.457Z,10.10
2018-01-17T10:08:08.962Z,7.07
2018-01-17T10:10:36.443Z,6.70
2018-01-17T10:13:04.690Z,7.20
2018-01-17T10:15:32.164Z,7.33
2018-01-17T10:17:59.646Z,8.33
2018-01-17T10:20:27.890Z,12.40
2018-01-17T10:22:55.380Z,8.17
2018-01-17T10:25:23.624Z,6.03
2018-01-17T10:27:51.102Z,8.03
2018-01-17T10:30:19.350Z,11.50
2018-01-17T10:32:46.822Z,9.47
2018-01-17T10:35:14.302Z,6.87
2018-01-17T10:37:42.547Z,5.10
2018-01-17T10:40:10.121Z,5.87
2018-01-17T10:42:37.550Z,10.50
2018-01-17T10:45:05.042Z,24.47
2018-01-17T10:47:32.513Z,5.77
2018-01-17T10:50:00.761Z,10.17
2018-01-17T10:52:28.250Z,5.90
2018-01-17T10:54:57.127Z,12.03
2018-01-17T10:57:24.638Z,18.03
2018-01-17T10:59:52.130Z,7.70
2018-01-17T11:02:19.606Z,5.63
2018-01-17T11:04:47.853Z,9.37
2018-01-17T11:07:15.330Z,8.60
2018-01-17T11:09:42.810Z,8.63
2018-01-17T11:12:11.042Z,7.53
2018-01-17T11:14:38.527Z,7.63
2018-01-17T11:17:06.775Z,14.00
2018-01-17T11:19:34.262Z,9.23
2018-01-17T11:22:01.730Z,10.73
2018-01-17T11:24:30.068Z,8.33
2018-01-17T11:27:19.609Z,11.60
2018-01-17T11:29:47.080Z,8.53
2018-01-17T11:32:15.578Z,6.03
2018-01-17T11:34:43.320Z,4.03
2018-01-17T11:37:10.801Z,6.70
2018-01-17T11:39:38.298Z,5.97
2018-01-17T11:42:06.535Z,6.23
2018-01-17T11:44:34.209Z,5.37
2018-01-17T11:47:01.732Z,3.77
2018-01-17T11:49:29.229Z,8.70
2018-01-17T11:51:56.694Z,5.93
2018-01-17T11:54:24.174Z,5.40
2018-01-17T11:56:52.610Z,6.10
2018-01-17T11:59:20.103Z,6.10
2018-01-17T12:01:47.578Z,4.97
2018-01-17T12:04:15.814Z,6.47
2018-01-17T12:06:43.282Z,5.10
2018-01-17T12:09:10.786Z,10.17
2018-01-17T12:11:38.262Z,6.30
2018-01-17T12:14:05.746Z,11.33
2018-01-17T12:16:33.226Z,5.03
2018-01-17T12:19:00.706Z,3.47
2018-01-17T12:21:28.935Z,3.87
2018-01-17T12:23:56.422Z,9.20
2018-01-17T12:26:23.901Z,3.73
2018-01-17T12:28:52.154Z,6.30
2018-01-17T12:31:19.634Z,3.57
2018-01-17T12:33:47.871Z,5.13
2018-01-17T12:36:15.355Z,7.60
2018-01-17T12:38:42.826Z,8.33
2018-01-17T12:41:11.067Z,6.07
2018-01-17T12:43:38.533Z,7.20
2018-01-17T12:46:06.034Z,14.90
2018-01-17T12:48:33.493Z,4.50
2018-01-17T12:51:00.988Z,5.87
2018-01-17T12:53:28.473Z,7.77
2018-01-17T12:55:55.955Z,4.17
2018-01-17T12:58:24.190Z,6.33
2018-01-17T13:00:51.682Z,6.57
2018-01-17T13:03:19.925Z,4.40
2018-01-17T13:05:47.398Z,4.20
2018-01-17T13:08:14.874Z,6.63
2018-01-17T13:10:43.113Z,7.20
2018-01-17T13:13:10.602Z,3.90
2018-01-17T13:15:38.884Z,10.43
2018-01-17T13:18:06.783Z,11.00
2018-01-17T13:20:34.271Z,6.23
2018-01-17T13:23:01.750Z,7.90
2018-01-17T13:25:29.229Z,7.53
2018-01-17T13:27:57.462Z,5.40
2018-01-17T13:30:24.941Z,7.63
2018-01-17T13:32:52.421Z,6.10
2018-01-17T13:35:20.691Z,8.27
2018-01-17T13:37:48.928Z,4.73
2018-01-17T13:40:16.402Z,8.47
2018-01-17T13:42:43.882Z,10.30
2018-01-17T13:45:11.349Z,6.60
2018-01-17T13:47:39.590Z,8.33
2018-01-17T13:50:07.070Z,7.10
2018-01-17T13:52:34.541Z,9.63
2018-01-17T13:55:02.782Z,6.93
2018-01-17T13:57:30.262Z,7.17
2018-01-17T13:59:57.746Z,6.50
2018-01-17T14:02:25.210Z,7.63
2018-01-17T14:04:52.686Z,7.50
2018-01-17T14:07:20.166Z,10.07
2018-01-17T14:09:47.645Z,7.07
2018-01-17T14:12:15.118Z,10.40
2018-01-17T14:14:42.610Z,8.40
2018-01-17T14:17:10.074Z,9.03
2018-01-17T14:19:37.575Z,12.27
2018-01-17T14:22:05.060Z,9.67
2018-01-17T14:24:32.521Z,8.90
2018-01-17T14:27:00.766Z,10.30
2018-01-17T14:29:28.240Z,11.97
2018-01-17T14:31:55.929Z,9.83
2018-01-17T14:34:23.418Z,9.70
2018-01-17T14:36:50.907Z,8.00
2018-01-17T14:39:18.385Z,7.37
2018-01-17T14:41:45.862Z,6.23
2018-01-17T14:44:13.345Z,13.17
2018-01-17T14:46:40.831Z,9.93
2018-01-17T14:49:08.359Z,5.37
2018-01-17T14:51:35.793Z,9.30
2018-01-17T14:54:03.273Z,12.30
2018-01-17T14:56:30.746Z,9.13
2018-01-17T14:58:58.231Z,6.30
2018-01-17T15:01:25.710Z,11.63
2018-01-17T15:03:53.174Z,6.27
2018-01-17T15:06:21.427Z,9.00
2018-01-17T15:08:48.900Z,11.70
2018-01-17T15:11:16.374Z,14.17
2018-01-17T15:13:44.616Z,6.40
2018-01-17T15:16:12.087Z,6.70
2018-01-17T15:18:39.563Z,6.17
2018-01-17T15:21:07.810Z,6.73
2018-01-17T15:23:35.278Z,5.53
2018-01-17T15:26:02.754Z,9.20
2018-01-17T15:28:31.000Z,6.50
2018-01-17T15:30:59.175Z,7.23
2018-01-17T15:33:26.655Z,3.90
2018-01-17T15:35:54.128Z,4.33
2018-01-17T15:38:21.622Z,7.70
2018-01-17T15:40:49.116Z,3.70
2018-01-17T15:43:16.584Z,4.43
2018-01-17T15:45:44.057Z,3.47
2018-01-17T15:48:12.315Z,5.60
2018-01-17T15:50:40.570Z,5.80
2018-01-17T15:53:08.067Z,2.83
2018-01-17T15:55:36.311Z,3.83
2018-01-17T15:58:03.774Z,3.10
2018-01-17T16:00:31.254Z,2.90
2018-01-17T16:03:09.381Z,3.30
2018-01-17T16:05:36.877Z,6.40
2018-01-17T16:08:05.351Z,3.70
2018-01-17T16:10:32.830Z,3.40
2018-01-17T16:13:00.298Z,3.50
2018-01-17T16:15:27.773Z,3.13
2018-01-17T16:17:56.027Z,2.40
2018-01-17T16:20:23.509Z,5.70
2018-01-17T16:22:50.977Z,3.40
2018-01-17T16:25:19.216Z,3.70
2018-01-17T16:27:46.700Z,3.47
2018-01-17T16:30:14.193Z,3.30
2018-01-17T16:32:41.719Z,3.60
2018-01-17T16:35:09.990Z,5.27
2018-01-17T16:37:37.468Z,3.30
2018-01-17T16:40:05.697Z,4.10
2018-01-17T16:42:33.191Z,4.17
2018-01-17T16:45:01.429Z,3.03
2018-01-17T16:47:28.917Z,5.57
2018-01-17T16:49:56.385Z,3.40
2018-01-17T16:52:24.639Z,3.70
2018-01-17T16:54:52.112Z,3.50
2018-01-17T16:57:19.622Z,6.33
2018-01-17T16:59:47.076Z,3.80
2018-01-17T17:02:14.584Z,5.93
2018-01-17T17:04:42.054Z,4.70
2018-01-17T17:07:10.297Z,4.93
2018-01-17T17:09:37.790Z,4.50
2018-01-17T17:12:05.253Z,6.77
2018-01-17T17:14:33.504Z,3.90
2018-01-17T17:17:00.980Z,4.47
2018-01-17T17:19:29.219Z,3.50
2018-01-17T17:21:56.714Z,3.87
2018-01-17T17:24:24.946Z,4.10
2018-01-17T17:26:52.426Z,3.67
2018-01-17T17:29:19.898Z,3.60
2018-01-17T17:31:47.380Z,3.47
2018-01-17T17:34:14.858Z,4.07
2018-01-17T17:36:42.346Z,4.07
2018-01-17T17:39:09.827Z,5.70
2018-01-17T17:41:37.307Z,4.10
2018-01-17T17:46:58.929Z,4.23
2018-01-17T17:49:26.398Z,5.90
2018-01-17T17:51:54.639Z,5.47
2018-01-17T17:54:22.110Z,3.70
2018-01-17T17:56:49.588Z,2.80
2018-01-17T17:59:17.055Z,3.30
2018-01-17T18:01:45.299Z,2.80
2018-01-17T18:04:12.773Z,4.87
2018-01-17T18:06:40.258Z,3.43
2018-01-17T18:09:07.726Z,5.53
2018-01-17T18:11:35.206Z,2.87
2018-01-17T18:14:02.670Z,2.10
2018-01-17T18:16:30.150Z,3.70
2018-01-17T18:18:57.625Z,2.87
2018-01-17T18:21:25.867Z,2.50
2018-01-17T18:23:53.326Z,2.17
2018-01-17T18:26:21.258Z,2.73
2018-01-17T18:28:48.777Z,1.50
2018-01-17T18:31:16.484Z,1.60
2018-01-17T18:33:43.958Z,4.00
2018-01-17T18:36:11.442Z,2.87
2018-01-17T18:38:38.906Z,1.87
2018-01-17T18:41:06.386Z,4.30
2018-01-17T18:43:33.837Z,1.40
2018-01-17T18:46:02.078Z,2.90
2018-01-17T18:48:29.550Z,1.67
2018-01-17T18:50:57.014Z,3.47
2018-01-17T18:53:24.492Z,2.13
2018-01-17T18:55:52.017Z,5.00
2018-01-17T18:58:19.481Z,3.73
2018-01-17T19:00:46.950Z,10.43
2018-01-17T19:03:14.447Z,7.63
2018-01-17T19:05:41.925Z,3.13
2018-01-17T19:08:09.421Z,13.50
2018-01-17T19:10:36.885Z,4.10
2018-01-17T19:13:04.371Z,6.80
2018-01-17T19:15:32.654Z,9.60
2018-01-17T19:18:00.134Z,7.30
2018-01-17T19:20:27.618Z,7.13
2018-01-17T19:22:55.090Z,5.67
2018-01-17T19:25:22.562Z,6.00
2018-01-17T19:27:50.059Z,11.00
2018-01-17T19:30:17.538Z,12.77
2018-01-17T19:32:45.018Z,13.87
2018-01-17T19:35:12.494Z,13.43
2018-01-17T19:37:39.994Z,15.60
2018-01-17T19:40:07.476Z,10.10
2018-01-17T19:42:34.962Z,11.70
2018-01-17T19:45:02.436Z,9.33
2018-01-17T19:47:29.970Z,9.07
2018-01-17T19:49:57.382Z,12.00
2018-01-17T19:52:24.859Z,9.03
2018-01-17T19:54:52.443Z,10.20
2018-01-17T19:57:19.934Z,16.27
2018-01-17T19:59:48.217Z,13.50
2018-01-17T20:02:16.485Z,10.90
2018-01-17T20:04:44.726Z,12.27
2018-01-17T20:07:12.214Z,15.00
2018-01-17T20:09:39.698Z,11.60
2018-01-17T20:12:07.226Z,12.10
2018-01-17T20:14:34.670Z,13.77
2018-01-17T20:17:02.155Z,12.00
2018-01-17T20:19:30.391Z,8.80
2018-01-17T20:21:57.876Z,8.00
2018-01-17T20:24:25.349Z,13.27
2018-01-17T20:26:53.618Z,12.20
2018-01-17T20:29:21.086Z,12.83
2018-01-17T20:31:49.336Z,11.03
2018-01-17T20:34:16.801Z,7.83
2018-01-17T20:36:44.282Z,14.90
2018-01-17T20:39:11.758Z,16.80
2018-01-17T20:41:39.226Z,10.37
2018-01-17T20:44:06.722Z,12.50
2018-01-17T20:46:34.203Z,13.13
2018-01-17T20:49:01.686Z,22.50
2018-01-17T20:51:29.157Z,14.57
2018-01-17T20:53:57.114Z,12.47
2018-01-17T20:56:25.401Z,15.90
2018-01-17T20:58:52.887Z,15.20
2018-01-17T21:01:20.370Z,22.50
2018-01-17T21:03:48.365Z,17.50
2018-01-17T21:06:17.342Z,12.00
2018-01-17T21:08:44.823Z,12.33
2018-01-17T21:11:13.065Z,18.57
2018-01-17T21:13:40.554Z,12.10
2018-01-17T21:16:08.803Z,12.67
2018-01-17T21:18:36.286Z,10.13
2018-01-17T21:21:04.521Z,14.13
2018-01-17T21:23:32.017Z,6.30
2018-01-17T21:25:59.482Z,5.33
2018-01-17T21:28:27.726Z,5.20
2018-01-17T21:30:55.202Z,6.90
2018-01-17T21:33:23.449Z,5.63
2018-01-17T21:35:50.916Z,7.87
2018-01-17T21:38:18.399Z,6.83
2018-01-17T21:40:48.676Z,6.70
2018-01-17T21:51:56.514Z,6.00
2018-01-17T21:54:47.678Z,7.40
2018-01-17T22:06:21.877Z,10.30
2018-01-17T22:08:50.154Z,9.30
2018-01-17T22:11:31.347Z,11.10
2018-01-17T22:19:47.344Z,8.60
2018-01-17T22:22:15.517Z,13.47
2018-01-17T22:24:43.617Z,10.47
2018-01-17T22:27:11.902Z,12.30
2018-01-17T22:29:42.056Z,13.47
2018-01-17T22:32:09.593Z,11.93
2018-01-17T22:34:37.137Z,10.70
2018-01-17T22:37:06.010Z,10.60
2018-01-17T22:39:33.527Z,11.60
2018-01-17T23:11:45.180Z,17.17
2018-01-17T23:20:06.298Z,18.57
2018-01-17T23:29:59.067Z,15.97
2018-01-17T23:32:26.676Z,12.33
2018-01-17T23:34:54.239Z,12.20
2018-01-17T23:37:21.735Z,15.50
2018-01-17T23:39:49.290Z,16.33
2018-01-17T23:42:41.465Z,14.97
2018-01-17T23:48:14.836Z,16.07
2018-01-17T23:50:45.307Z,14.60
2018-01-17T23:53:15.214Z,17.23
2018-01-17T23:55:59.930Z,18.10
2018-01-17T23:58:36.248Z,14.73
